EDT,Max TemperatureF,Mean TemperatureF,Min TemperatureF,Max Dew PointF,MeanDew PointF,Min DewpointF,Max Humidity, Mean Humidity, Min Humidity, Max Sea Level PressureIn, Mean Sea Level PressureIn, Min Sea Level PressureIn, Max VisibilityMiles, Mean VisibilityMiles, Min VisibilityMiles, Max Wind SpeedMPH, Mean Wind SpeedMPH, Max Gust SpeedMPH,PrecipitationIn, CloudCover, Events, WindDirDegrees
2013-10-1,74,64,54,61,57,53,100,74,47,30.13,30.07,30.03,10,9,1,12,3,,0.00,0,,288
2013-10-2,80,72,63,67,62,58,90,74,48,30.12,30.08,30.05,10,10,10,10,7,,0.00,0,,250
2013-10-3,81,74,66,68,64,61,88,75,51,30.14,30.11,30.08,10,10,10,13,5,,0.00,0,,243
2013-10-4,79,74,68,68,66,64,94,80,62,30.15,30.11,30.07,10,10,10,12,6,,0.00,1,,215
2013-10-5,81,74,68,71,68,65,95,81,59,30.12,30.09,30.06,10,10,10,10,6,,0.00,0,,229
2013-10-6,80,72,65,71,68,66,100,82,64,30.11,30.06,30.01,10,9,0,14,6,17,0.00,1,Fog,196
2013-10-7,82,76,71,72,70,67,94,81,60,30.00,29.94,29.89,10,10,7,20,11,24,0.00,3,Rain,204
2013-10-8,72,67,62,70,61,57,98,88,76,30.12,30.07,29.95,10,9,5,24,17,33,0.00,8,Rain,48
2013-10-9,70,67,64,69,66,60,99,94,83,30.09,29.98,29.87,10,7,2,29,20,39,0.01,8,Rain,49
2013-10-10,78,71,64,72,69,64,99,93,79,29.87,29.82,29.78,10,8,2,17,11,24,0.29,8,Rain,114
2013-10-11,65,64,63,65,63,62,100,96,90,29.92,29.86,29.80,10,7,1,12,5,16,0.25,8,,299
2013-10-12,68,66,63,65,63,63,98,92,86,30.04,29.97,29.90,10,10,3,7,4,,0.12,8,,306
2013-10-13,75,70,66,71,68,64,100,93,83,30.14,30.08,30.03,10,7,1,18,10,25,0.04,8,,43
2013-10-14,71,68,65,67,64,61,95,87,78,30.16,30.14,30.11,10,9,7,21,15,31,0.03,8,,44
2013-10-15,73,69,65,67,66,62,96,91,82,30.12,30.05,30.00,10,10,7,21,15,26,0.01,7,,37
2013-10-16,70,67,64,67,65,63,97,92,81,30.01,29.98,29.95,10,10,10,14,10,20,0.01,8,,31
2013-10-17,73,67,61,66,64,61,100,88,73,29.97,29.92,29.86,10,9,0,16,4,17,0.00,3,Fog-Rain,228
2013-10-18,69,66,62,66,59,53,89,77,64,30.03,29.97,29.87,10,10,10,14,8,17,0.00,6,,43
2013-10-19,70,66,61,68,64,59,98,93,80,29.99,29.91,29.84,10,9,3,17,9,20,0.00,8,Rain,119
2013-10-20,68,60,51,68,52,45,97,72,59,30.13,30.01,29.87,10,10,7,17,9,24,0.00,2,Rain,18
2013-10-21,66,57,48,58,50,44,92,72,54,30.16,30.09,29.99,10,10,10,10,3,,0.01,2,,66
2013-10-22,64,62,61,60,55,50,93,76,66,30.00,29.92,29.83,10,10,10,12,5,,0.00,3,Rain,285
2013-10-23,66,61,55,59,54,40,96,79,54,29.91,29.75,29.62,10,10,10,18,9,29,0.04,4,Rain,282
2013-10-24,57,52,47,45,37,32,73,56,43,30.17,30.06,29.91,10,10,10,14,9,24,0.38,2,,331
2013-10-25,53,50,46,38,32,28,68,51,39,30.34,30.25,30.16,10,10,10,15,8,18,0.00,3,,348
2013-10-26,59,53,47,46,39,31,85,59,48,30.33,30.21,30.09,10,10,10,12,5,,0.00,1,,334
2013-10-27,62,54,47,47,42,37,96,65,41,30.17,30.09,30.04,10,10,10,10,6,,0.00,0,,300
2013-10-28,65,55,45,54,48,43,100,82,45,30.27,30.22,30.16,10,9,0,6,1,,0.00,1,Fog,206
2013-10-29,67,57,47,56,51,46,97,80,57,30.33,30.29,30.25,10,10,7,9,3,,0.00,1,,41
2013-10-30,70,62,53,60,54,47,99,79,47,30.32,30.27,30.21,10,10,3,8,3,,0.00,2,,168
2013-10-31,72,63,54,65,60,54,99,86,60,30.23,30.14,30.01,10,10,5,23,5,28,0.00,2,,206